Agua Dulce, California
Current Conditions -  °F | °C
As of 2:56 PM on Friday 28 Nov 2014 (Local Time) from KWJF Reporting Station
Clear Clear  
Wind Chill: 78°   Ceiling: Unl
Heat Index: 78°   Visibility: 10mi
Dew Point: 16°   Wind: 16mph
Humidity: 10%   Direction: 230°SW
Pressure: 29.93"   Gusts: NA
Location:  34.513°N, 118.402°W
Report Text: KWJF 282256Z 23014KT 10SM CLR 26/M09 A2993 RMK AO2 SLP131 T02561089
Loading
Personal Weather Stations






























Interactive Weather Map New forecast layout! Learn more

10-Day Weather Forecast

Advertisements
Track Severe Weather on mobile